Terminal Aerodrome Forecast
Issued by NWS Sterling, VA

Current Version | Previous Version | Graphics & Text | Print | Product List | Glossary On
Versions: 1 2 3 4 5 6 7 8 9 10 11 12 13 14 15 16
584
FTUS41 KLWX 222336
TAFMRB
TAF
KMRB 222336Z 2300/2324 VRB03KT P6SM FEW250
     FM231000 00000KT 2SM BR FEW150
     FM231300 00000KT P6SM FEW200
     FM231500 00000KT P6SM FEW050=

USA.gov is the U.S. government's official web portal to all federal, state and local government web resources and services.